This is the latest recevied weather packets stored in our database for station/object OK5TVR-5. If no packets are shown the sender has not sent any weather packets the latest 10 day(s).
| Time | Temp. | Humidity | Pressure | Rain* | Wind** | Luminosity | Snow |
|---|---|---|---|---|---|---|---|
| 1788143069 | 15.56° C | 84% | 1007.9 hPa | 0 mm | - | 0 W/m² | - |
| 1788143065 | 15.56° C | 84% | 1007.9 hPa | 0 mm | - | 0 W/m² | - |
| 1788142165 | 15.56° C | 84% | 1008.1 hPa | 0 mm | - | 0 W/m² | - |
| 1788141265 | 15.56° C | 84% | 1008.3 hPa | 0 mm | - | 0 W/m² | - |
| 1788140365 | 15.56° C | 84% | 1008.4 hPa | 0 mm | - | 0 W/m² | - |
| 1788140365 | 15.56° C | 84% | 1008.4 hPa | 0 mm | - | 0 W/m² | - |
| 1788139465 | 16.11° C | 82% | 1008.3 hPa | 0 mm | - | 0 W/m² | - |
| 1788138565 | 15.56° C | 85% | 1008.6 hPa | 0 mm | - | 0 W/m² | - |
| 1788137665 | 16.11° C | 82% | 1008.5 hPa | 0 mm | - | 0 W/m² | - |
| 1788136765 | 16.11° C | 82% | 1008.6 hPa | 0 mm | - | 0 W/m² | - |
| 1788135865 | 16.11° C | 80% | 1008.6 hPa | 0 mm | - | 0 W/m² | - |
| 1788134969 | 16.11° C | - | - | - | - | - | - |
| 1788134965 | 16.11° C | 82% | 1008.7 hPa | 0 mm | - | 0 W/m² | - |
| 1788134964 | 16.11° C | - | - | - | - | - | - |
| 1788134065 | 16.11° C | 82% | 1008.7 hPa | 0 mm | - | 0 W/m² | - |
| 1788133165 | 16.67° C | 80% | 1008.8 hPa | 0 mm | - | 0 W/m² | - |
| 1788132265 | 16.11° C | 81% | 1009 hPa | 0 mm | - | 0 W/m² | - |
| 1788131365 | 16.67° C | 79% | 1008.7 hPa | 0 mm | - | 0 W/m² | - |
| 1788130465 | 16.67° C | 80% | 1008.8 hPa | 0 mm | - | 0 W/m² | - |
| 1788129565 | 17.22° C | 77% | 1008.9 hPa | 0 mm | - | 0 W/m² | - |
| 1788128665 | 17.22° C | 78% | 1008.8 hPa | 0 mm | - | 0 W/m² | - |
| 1788127765 | 17.22° C | 78% | 1008.8 hPa | 0 mm | - | 0 W/m² | - |
| 1788126865 | 17.78° C | 75% | 1008.8 hPa | 0 mm | - | 0 W/m² | - |
| 1788125965 | 18.33° C | 75% | 1008.8 hPa | 0 mm | - | 0 W/m² | - |
| 1788125065 | 18.33° C | 72% | 1008.6 hPa | 0 mm | - | 0 W/m² | - |
* Rain latest hour (hover to see other rain measurements)
** Current wind speed in m/s (hover to see current wind gust speed)